sensor_id;sensor_type;location;lat;lon;timestamp;temperature;humidity
13115;DHT22;6623;52.120;8.660;2023-12-29T00:02:05;20.90;44.60
13115;DHT22;6623;52.120;8.660;2023-12-29T00:04:30;20.90;44.60
13115;DHT22;6623;52.120;8.660;2023-12-29T00:06:56;20.90;44.60
13115;DHT22;6623;52.120;8.660;2023-12-29T00:09:21;20.90;44.70
13115;DHT22;6623;52.120;8.660;2023-12-29T00:11:47;20.90;44.70
13115;DHT22;6623;52.120;8.660;2023-12-29T00:14:13;20.90;44.70
13115;DHT22;6623;52.120;8.660;2023-12-29T00:16:39;20.80;44.60
13115;DHT22;6623;52.120;8.660;2023-12-29T00:19:04;20.90;44.70
13115;DHT22;6623;52.120;8.660;2023-12-29T00:21:30;20.80;44.60
13115;DHT22;6623;52.120;8.660;2023-12-29T00:23:55;20.90;44.70
13115;DHT22;6623;52.120;8.660;2023-12-29T00:26:22;20.80;44.70
13115;DHT22;6623;52.120;8.660;2023-12-29T00:28:47;20.80;44.70
13115;DHT22;6623;52.120;8.660;2023-12-29T00:31:16;20.80;44.70
13115;DHT22;6623;52.120;8.660;2023-12-29T00:33:45;20.80;44.70
13115;DHT22;6623;52.120;8.660;2023-12-29T00:36:15;20.80;44.70
13115;DHT22;6623;52.120;8.660;2023-12-29T00:38:41;20.80;44.70
13115;DHT22;6623;52.120;8.660;2023-12-29T00:41:07;20.80;45.40
13115;DHT22;6623;52.120;8.660;2023-12-29T00:43:32;20.80;44.70
13115;DHT22;6623;52.120;8.660;2023-12-29T00:45:57;20.80;44.70
13115;DHT22;6623;52.120;8.660;2023-12-29T00:48:23;20.80;44.80
13115;DHT22;6623;52.120;8.660;2023-12-29T00:50:48;20.80;44.80
13115;DHT22;6623;52.120;8.660;2023-12-29T00:53:14;20.80;44.80
13115;DHT22;6623;52.120;8.660;2023-12-29T00:55:39;20.80;44.80
13115;DHT22;6623;52.120;8.660;2023-12-29T00:58:05;20.70;45.40
13115;DHT22;6623;52.120;8.660;2023-12-29T01:00:30;20.70;44.70
13115;DHT22;6623;52.120;8.660;2023-12-29T01:02:56;20.70;44.70
13115;DHT22;6623;52.120;8.660;2023-12-29T01:05:21;20.80;44.80
13115;DHT22;6623;52.120;8.660;2023-12-29T01:07:47;20.70;44.80
13115;DHT22;6623;52.120;8.660;2023-12-29T01:10:13;20.70;44.80
13115;DHT22;6623;52.120;8.660;2023-12-29T01:12:38;20.70;44.80
13115;DHT22;6623;52.120;8.660;2023-12-29T01:15:04;20.70;44.80
13115;DHT22;6623;52.120;8.660;2023-12-29T01:17:30;20.70;44.80
13115;DHT22;6623;52.120;8.660;2023-12-29T01:19:55;20.70;44.80
13115;DHT22;6623;52.120;8.660;2023-12-29T01:22:21;20.70;44.80
13115;DHT22;6623;52.120;8.660;2023-12-29T01:24:46;20.70;44.80
13115;DHT22;6623;52.120;8.660;2023-12-29T01:27:12;20.70;44.80
13115;DHT22;6623;52.120;8.660;2023-12-29T01:29:37;20.70;44.80
13115;DHT22;6623;52.120;8.660;2023-12-29T01:32:03;20.70;44.80
13115;DHT22;6623;52.120;8.660;2023-12-29T01:34:32;20.70;44.80
13115;DHT22;6623;52.120;8.660;2023-12-29T01:36:59;20.70;44.90
13115;DHT22;6623;52.120;8.660;2023-12-29T01:39:25;20.70;44.90
13115;DHT22;6623;52.120;8.660;2023-12-29T01:41:50;20.70;44.90
13115;DHT22;6623;52.120;8.660;2023-12-29T01:44:18;20.60;44.90
13115;DHT22;6623;52.120;8.660;2023-12-29T01:46:46;20.60;44.80
13115;DHT22;6623;52.120;8.660;2023-12-29T01:49:15;20.70;44.90
13115;DHT22;6623;52.120;8.660;2023-12-29T01:51:42;20.60;44.80
13115;DHT22;6623;52.120;8.660;2023-12-29T01:54:08;20.70;44.90
13115;DHT22;6623;52.120;8.660;2023-12-29T01:56:34;20.60;44.80
13115;DHT22;6623;52.120;8.660;2023-12-29T01:59:00;20.60;44.90
13115;DHT22;6623;52.120;8.660;2023-12-29T02:01:26;20.60;44.90
13115;DHT22;6623;52.120;8.660;2023-12-29T02:03:51;20.60;44.90
13115;DHT22;6623;52.120;8.660;2023-12-29T02:06:17;20.60;44.90
13115;DHT22;6623;52.120;8.660;2023-12-29T02:08:44;20.60;44.90
13115;DHT22;6623;52.120;8.660;2023-12-29T02:11:10;20.60;44.90
13115;DHT22;6623;52.120;8.660;2023-12-29T02:13:36;20.60;44.90
13115;DHT22;6623;52.120;8.660;2023-12-29T02:16:09;20.60;44.90
13115;DHT22;6623;52.120;8.660;2023-12-29T02:18:38;20.60;44.90
13115;DHT22;6623;52.120;8.660;2023-12-29T02:21:04;20.60;44.90
13115;DHT22;6623;52.120;8.660;2023-12-29T02:23:30;20.60;45.60
13115;DHT22;6623;52.120;8.660;2023-12-29T02:26:01;20.60;44.90
13115;DHT22;6623;52.120;8.660;2023-12-29T02:28:27;20.60;44.90
13115;DHT22;6623;52.120;8.660;2023-12-29T02:31:06;20.60;44.90
13115;DHT22;6623;52.120;8.660;2023-12-29T02:33:37;20.60;44.90
13115;DHT22;6623;52.120;8.660;2023-12-29T02:36:04;20.60;44.90
13115;DHT22;6623;52.120;8.660;2023-12-29T02:38:30;20.60;45.00
13115;DHT22;6623;52.120;8.660;2023-12-29T02:40:57;20.60;45.00
13115;DHT22;6623;52.120;8.660;2023-12-29T02:43:22;20.60;45.00
13115;DHT22;6623;52.120;8.660;2023-12-29T02:45:48;20.60;44.90
13115;DHT22;6623;52.120;8.660;2023-12-29T02:48:13;20.60;45.00
13115;DHT22;6623;52.120;8.660;2023-12-29T02:50:39;20.60;45.00
13115;DHT22;6623;52.120;8.660;2023-12-29T02:53:05;20.60;45.00
13115;DHT22;6623;52.120;8.660;2023-12-29T02:55:31;20.60;45.00
13115;DHT22;6623;52.120;8.660;2023-12-29T02:57:56;20.50;45.00
13115;DHT22;6623;52.120;8.660;2023-12-29T03:00:22;20.50;44.90
13115;DHT22;6623;52.120;8.660;2023-12-29T03:02:47;20.60;45.00
13115;DHT22;6623;52.120;8.660;2023-12-29T03:05:14;20.60;45.00
13115;DHT22;6623;52.120;8.660;2023-12-29T03:07:39;20.60;45.70
13115;DHT22;6623;52.120;8.660;2023-12-29T03:10:06;20.50;45.00
13115;DHT22;6623;52.120;8.660;2023-12-29T03:12:32;20.60;45.10
13115;DHT22;6623;52.120;8.660;2023-12-29T03:14:58;20.50;45.00
13115;DHT22;6623;52.120;8.660;2023-12-29T03:17:23;20.60;45.00
13115;DHT22;6623;52.120;8.660;2023-12-29T03:19:49;20.60;45.00
13115;DHT22;6623;52.120;8.660;2023-12-29T03:22:14;20.60;45.10
13115;DHT22;6623;52.120;8.660;2023-12-29T03:24:43;20.60;45.10
13115;DHT22;6623;52.120;8.660;2023-12-29T03:27:09;20.50;45.00
13115;DHT22;6623;52.120;8.660;2023-12-29T03:29:34;20.50;45.00
13115;DHT22;6623;52.120;8.660;2023-12-29T03:32:00;20.50;45.00
13115;DHT22;6623;52.120;8.660;2023-12-29T03:34:26;20.50;45.10
13115;DHT22;6623;52.120;8.660;2023-12-29T03:36:51;20.50;45.00
13115;DHT22;6623;52.120;8.660;2023-12-29T03:39:17;20.50;45.00
13115;DHT22;6623;52.120;8.660;2023-12-29T03:41:42;20.50;45.10
13115;DHT22;6623;52.120;8.660;2023-12-29T03:44:08;20.50;45.10
13115;DHT22;6623;52.120;8.660;2023-12-29T03:46:33;20.50;45.10
13115;DHT22;6623;52.120;8.660;2023-12-29T03:48:59;20.50;45.10
13115;DHT22;6623;52.120;8.660;2023-12-29T03:51:24;20.50;45.10
13115;DHT22;6623;52.120;8.660;2023-12-29T03:53:50;20.50;45.10
13115;DHT22;6623;52.120;8.660;2023-12-29T03:56:16;20.50;45.10
13115;DHT22;6623;52.120;8.660;2023-12-29T03:58:43;20.50;45.10
13115;DHT22;6623;52.120;8.660;2023-12-29T04:01:15;20.50;45.10
13115;DHT22;6623;52.120;8.660;2023-12-29T04:03:41;20.50;45.10
13115;DHT22;6623;52.120;8.660;2023-12-29T04:06:07;20.50;45.10
13115;DHT22;6623;52.120;8.660;2023-12-29T04:08:37;20.50;45.10
13115;DHT22;6623;52.120;8.660;2023-12-29T04:11:02;20.50;45.10
13115;DHT22;6623;52.120;8.660;2023-12-29T04:13:29;20.50;45.10
13115;DHT22;6623;52.120;8.660;2023-12-29T04:15:55;20.50;45.10
13115;DHT22;6623;52.120;8.660;2023-12-29T04:18:21;20.50;45.10
13115;DHT22;6623;52.120;8.660;2023-12-29T04:20:47;20.50;45.10
13115;DHT22;6623;52.120;8.660;2023-12-29T04:23:13;20.50;45.10
13115;DHT22;6623;52.120;8.660;2023-12-29T04:25:39;20.50;45.10
13115;DHT22;6623;52.120;8.660;2023-12-29T04:28:04;20.50;45.10
13115;DHT22;6623;52.120;8.660;2023-12-29T04:30:30;20.50;45.20
13115;DHT22;6623;52.120;8.660;2023-12-29T04:32:55;20.50;45.10
13115;DHT22;6623;52.120;8.660;2023-12-29T04:35:21;20.50;45.10
13115;DHT22;6623;52.120;8.660;2023-12-29T04:37:47;20.50;45.10
13115;DHT22;6623;52.120;8.660;2023-12-29T04:40:13;20.50;45.20
13115;DHT22;6623;52.120;8.660;2023-12-29T04:42:38;20.50;45.10
13115;DHT22;6623;52.120;8.660;2023-12-29T04:45:04;20.50;45.10
13115;DHT22;6623;52.120;8.660;2023-12-29T04:47:30;20.50;45.10
13115;DHT22;6623;52.120;8.660;2023-12-29T04:49:56;20.50;45.20
13115;DHT22;6623;52.120;8.660;2023-12-29T04:52:21;20.50;45.20
13115;DHT22;6623;52.120;8.660;2023-12-29T04:54:47;20.50;45.20
13115;DHT22;6623;52.120;8.660;2023-12-29T04:57:12;20.50;45.20
13115;DHT22;6623;52.120;8.660;2023-12-29T04:59:38;20.50;45.20
13115;DHT22;6623;52.120;8.660;2023-12-29T05:02:04;20.50;45.20
13115;DHT22;6623;52.120;8.660;2023-12-29T05:04:29;20.50;45.20
13115;DHT22;6623;52.120;8.660;2023-12-29T05:06:55;20.50;45.20
13115;DHT22;6623;52.120;8.660;2023-12-29T05:09:20;20.50;45.20
13115;DHT22;6623;52.120;8.660;2023-12-29T05:11:46;20.50;45.20
13115;DHT22;6623;52.120;8.660;2023-12-29T05:14:11;20.40;45.20
13115;DHT22;6623;52.120;8.660;2023-12-29T05:16:37;20.50;45.20
13115;DHT22;6623;52.120;8.660;2023-12-29T05:19:02;20.40;45.20
13115;DHT22;6623;52.120;8.660;2023-12-29T05:21:28;20.40;45.20
13115;DHT22;6623;52.120;8.660;2023-12-29T05:23:53;20.40;45.20
13115;DHT22;6623;52.120;8.660;2023-12-29T05:26:21;20.40;45.20
13115;DHT22;6623;52.120;8.660;2023-12-29T05:28:47;20.40;45.20
13115;DHT22;6623;52.120;8.660;2023-12-29T05:31:12;20.40;45.20
13115;DHT22;6623;52.120;8.660;2023-12-29T05:33:38;20.50;45.20
13115;DHT22;6623;52.120;8.660;2023-12-29T05:36:07;20.40;45.20
13115;DHT22;6623;52.120;8.660;2023-12-29T05:38:33;20.40;45.20
13115;DHT22;6623;52.120;8.660;2023-12-29T05:41:00;20.40;45.20
13115;DHT22;6623;52.120;8.660;2023-12-29T05:43:28;20.40;45.20
13115;DHT22;6623;52.120;8.660;2023-12-29T05:45:53;20.40;45.20
13115;DHT22;6623;52.120;8.660;2023-12-29T05:48:19;20.40;45.20
13115;DHT22;6623;52.120;8.660;2023-12-29T05:50:44;20.40;45.20
13115;DHT22;6623;52.120;8.660;2023-12-29T05:53:10;20.40;45.30
13115;DHT22;6623;52.120;8.660;2023-12-29T05:55:35;20.40;45.20
13115;DHT22;6623;52.120;8.660;2023-12-29T05:58:01;20.40;45.20
13115;DHT22;6623;52.120;8.660;2023-12-29T06:00:27;20.40;45.20
13115;DHT22;6623;52.120;8.660;2023-12-29T06:02:52;20.40;45.20
13115;DHT22;6623;52.120;8.660;2023-12-29T06:05:18;20.40;45.30
13115;DHT22;6623;52.120;8.660;2023-12-29T06:07:43;20.40;45.30
13115;DHT22;6623;52.120;8.660;2023-12-29T06:10:09;20.40;45.30
13115;DHT22;6623;52.120;8.660;2023-12-29T06:12:35;20.40;45.30
13115;DHT22;6623;52.120;8.660;2023-12-29T06:15:01;20.40;45.30
13115;DHT22;6623;52.120;8.660;2023-12-29T06:17:27;20.40;45.30
13115;DHT22;6623;52.120;8.660;2023-12-29T06:19:52;20.40;45.30
13115;DHT22;6623;52.120;8.660;2023-12-29T06:22:18;20.40;45.30
13115;DHT22;6623;52.120;8.660;2023-12-29T06:24:43;20.40;45.30
13115;DHT22;6623;52.120;8.660;2023-12-29T06:27:09;20.40;45.30
13115;DHT22;6623;52.120;8.660;2023-12-29T06:29:35;20.40;45.30
13115;DHT22;6623;52.120;8.660;2023-12-29T06:32:02;20.40;45.30
13115;DHT22;6623;52.120;8.660;2023-12-29T06:34:28;20.40;45.30
13115;DHT22;6623;52.120;8.660;2023-12-29T06:36:53;20.40;45.30
13115;DHT22;6623;52.120;8.660;2023-12-29T06:39:19;20.40;46.00
13115;DHT22;6623;52.120;8.660;2023-12-29T06:41:44;20.40;45.30
13115;DHT22;6623;52.120;8.660;2023-12-29T06:44:10;20.40;45.30
13115;DHT22;6623;52.120;8.660;2023-12-29T06:46:39;20.40;45.30
13115;DHT22;6623;52.120;8.660;2023-12-29T06:49:05;20.40;45.30
13115;DHT22;6623;52.120;8.660;2023-12-29T06:51:31;20.40;45.40
13115;DHT22;6623;52.120;8.660;2023-12-29T06:53:57;20.40;45.30
13115;DHT22;6623;52.120;8.660;2023-12-29T06:56:23;20.40;45.30
13115;DHT22;6623;52.120;8.660;2023-12-29T06:58:48;20.40;45.40
13115;DHT22;6623;52.120;8.660;2023-12-29T07:01:14;20.40;45.30
13115;DHT22;6623;52.120;8.660;2023-12-29T07:03:41;20.40;45.30
13115;DHT22;6623;52.120;8.660;2023-12-29T07:06:06;20.40;45.30
13115;DHT22;6623;52.120;8.660;2023-12-29T07:08:32;20.30;45.30
13115;DHT22;6623;52.120;8.660;2023-12-29T07:10:58;20.40;45.30
13115;DHT22;6623;52.120;8.660;2023-12-29T07:13:23;20.40;45.30
13115;DHT22;6623;52.120;8.660;2023-12-29T07:15:49;20.30;45.30
13115;DHT22;6623;52.120;8.660;2023-12-29T07:18:15;20.40;45.40
13115;DHT22;6623;52.120;8.660;2023-12-29T07:20:42;20.40;45.40
13115;DHT22;6623;52.120;8.660;2023-12-29T07:23:07;20.40;45.40
13115;DHT22;6623;52.120;8.660;2023-12-29T07:25:33;20.30;45.30
13115;DHT22;6623;52.120;8.660;2023-12-29T07:27:58;20.40;45.40
13115;DHT22;6623;52.120;8.660;2023-12-29T07:30:24;20.30;45.30
13115;DHT22;6623;52.120;8.660;2023-12-29T07:32:49;20.40;45.40
13115;DHT22;6623;52.120;8.660;2023-12-29T07:35:16;20.40;45.40
13115;DHT22;6623;52.120;8.660;2023-12-29T07:37:43;20.30;45.30
13115;DHT22;6623;52.120;8.660;2023-12-29T07:40:12;20.40;45.40
13115;DHT22;6623;52.120;8.660;2023-12-29T07:42:41;20.40;45.40
13115;DHT22;6623;52.120;8.660;2023-12-29T07:45:08;20.40;45.40
13115;DHT22;6623;52.120;8.660;2023-12-29T07:47:34;20.40;45.40
13115;DHT22;6623;52.120;8.660;2023-12-29T07:50:00;20.40;45.50
13115;DHT22;6623;52.120;8.660;2023-12-29T07:52:26;20.30;45.30
13115;DHT22;6623;52.120;8.660;2023-12-29T07:54:52;20.30;45.40
13115;DHT22;6623;52.120;8.660;2023-12-29T07:57:17;20.40;45.50
13115;DHT22;6623;52.120;8.660;2023-12-29T07:59:43;20.40;45.40
13115;DHT22;6623;52.120;8.660;2023-12-29T08:02:08;20.40;45.40
13115;DHT22;6623;52.120;8.660;2023-12-29T08:04:34;20.30;45.40
13115;DHT22;6623;52.120;8.660;2023-12-29T08:07:00;20.40;45.40
13115;DHT22;6623;52.120;8.660;2023-12-29T08:09:25;20.30;45.40
13115;DHT22;6623;52.120;8.660;2023-12-29T08:11:51;20.40;45.50
13115;DHT22;6623;52.120;8.660;2023-12-29T08:14:17;20.30;45.40
13115;DHT22;6623;52.120;8.660;2023-12-29T08:16:42;20.30;45.40
13115;DHT22;6623;52.120;8.660;2023-12-29T08:19:08;20.30;45.40
13115;DHT22;6623;52.120;8.660;2023-12-29T08:21:35;20.30;45.40
13115;DHT22;6623;52.120;8.660;2023-12-29T08:24:01;20.30;45.40
13115;DHT22;6623;52.120;8.660;2023-12-29T08:26:26;20.30;45.40
13115;DHT22;6623;52.120;8.660;2023-12-29T08:28:52;20.30;45.40
13115;DHT22;6623;52.120;8.660;2023-12-29T08:31:18;20.30;45.40
13115;DHT22;6623;52.120;8.660;2023-12-29T08:33:45;20.30;45.40
13115;DHT22;6623;52.120;8.660;2023-12-29T08:36:12;20.30;45.40
13115;DHT22;6623;52.120;8.660;2023-12-29T08:38:38;20.30;45.40
13115;DHT22;6623;52.120;8.660;2023-12-29T08:41:03;20.30;45.40
13115;DHT22;6623;52.120;8.660;2023-12-29T08:43:29;20.30;45.40
13115;DHT22;6623;52.120;8.660;2023-12-29T08:45:55;20.30;45.40
13115;DHT22;6623;52.120;8.660;2023-12-29T08:48:21;20.30;45.40
13115;DHT22;6623;52.120;8.660;2023-12-29T08:50:46;20.30;45.40
13115;DHT22;6623;52.120;8.660;2023-12-29T08:53:12;20.30;45.40
13115;DHT22;6623;52.120;8.660;2023-12-29T08:55:37;20.30;45.40
13115;DHT22;6623;52.120;8.660;2023-12-29T08:58:03;20.30;45.40
13115;DHT22;6623;52.120;8.660;2023-12-29T09:00:29;20.30;45.40
13115;DHT22;6623;52.120;8.660;2023-12-29T09:02:56;20.30;45.40
13115;DHT22;6623;52.120;8.660;2023-12-29T09:05:21;20.30;45.40
13115;DHT22;6623;52.120;8.660;2023-12-29T09:07:47;20.30;45.40
13115;DHT22;6623;52.120;8.660;2023-12-29T09:10:12;20.30;45.40
13115;DHT22;6623;52.120;8.660;2023-12-29T09:12:39;20.30;45.40
13115;DHT22;6623;52.120;8.660;2023-12-29T09:15:05;20.30;45.40
13115;DHT22;6623;52.120;8.660;2023-12-29T09:17:31;20.30;45.40
13115;DHT22;6623;52.120;8.660;2023-12-29T09:19:56;20.30;45.40
13115;DHT22;6623;52.120;8.660;2023-12-29T09:22:22;20.30;45.50
13115;DHT22;6623;52.120;8.660;2023-12-29T09:24:47;20.30;45.40
13115;DHT22;6623;52.120;8.660;2023-12-29T09:27:13;20.30;45.50
13115;DHT22;6623;52.120;8.660;2023-12-29T09:29:39;20.30;45.40
13115;DHT22;6623;52.120;8.660;2023-12-29T09:32:06;20.30;45.50
13115;DHT22;6623;52.120;8.660;2023-12-29T09:34:31;20.30;45.40
13115;DHT22;6623;52.120;8.660;2023-12-29T09:36:57;20.30;45.40
13115;DHT22;6623;52.120;8.660;2023-12-29T09:39:23;20.30;45.50
13115;DHT22;6623;52.120;8.660;2023-12-29T09:41:51;20.30;45.50
13115;DHT22;6623;52.120;8.660;2023-12-29T09:44:20;20.30;45.50
13115;DHT22;6623;52.120;8.660;2023-12-29T09:46:51;20.30;45.50
13115;DHT22;6623;52.120;8.660;2023-12-29T09:49:19;20.30;45.50
13115;DHT22;6623;52.120;8.660;2023-12-29T09:51:45;20.30;45.50
13115;DHT22;6623;52.120;8.660;2023-12-29T09:54:11;20.30;45.50
13115;DHT22;6623;52.120;8.660;2023-12-29T09:56:37;20.30;45.50
13115;DHT22;6623;52.120;8.660;2023-12-29T09:59:03;20.30;45.50
13115;DHT22;6623;52.120;8.660;2023-12-29T10:01:29;20.30;45.50
13115;DHT22;6623;52.120;8.660;2023-12-29T10:03:56;20.30;45.50
13115;DHT22;6623;52.120;8.660;2023-12-29T10:06:24;20.30;45.50
13115;DHT22;6623;52.120;8.660;2023-12-29T10:08:50;20.30;45.50
13115;DHT22;6623;52.120;8.660;2023-12-29T10:11:18;20.30;45.50
13115;DHT22;6623;52.120;8.660;2023-12-29T10:13:49;20.30;45.50
13115;DHT22;6623;52.120;8.660;2023-12-29T10:16:39;20.30;45.50
13115;DHT22;6623;52.120;8.660;2023-12-29T10:19:37;20.30;45.50
13115;DHT22;6623;52.120;8.660;2023-12-29T10:24:31;20.30;45.50
13115;DHT22;6623;52.120;8.660;2023-12-29T10:26:57;20.30;45.50
13115;DHT22;6623;52.120;8.660;2023-12-29T10:29:23;20.30;45.50
13115;DHT22;6623;52.120;8.660;2023-12-29T10:31:49;20.30;45.50
13115;DHT22;6623;52.120;8.660;2023-12-29T10:36:55;20.30;46.20
13115;DHT22;6623;52.120;8.660;2023-12-29T10:39:20;20.30;45.50
13115;DHT22;6623;52.120;8.660;2023-12-29T10:41:46;20.30;45.50
13115;DHT22;6623;52.120;8.660;2023-12-29T10:44:12;20.30;45.50
13115;DHT22;6623;52.120;8.660;2023-12-29T10:46:37;20.30;45.60
13115;DHT22;6623;52.120;8.660;2023-12-29T10:49:10;20.30;45.50
13115;DHT22;6623;52.120;8.660;2023-12-29T10:51:36;20.30;45.60
13115;DHT22;6623;52.120;8.660;2023-12-29T10:54:03;20.20;45.50
13115;DHT22;6623;52.120;8.660;2023-12-29T10:56:32;20.30;45.60
13115;DHT22;6623;52.120;8.660;2023-12-29T10:59:02;20.30;45.50
13115;DHT22;6623;52.120;8.660;2023-12-29T11:01:29;20.30;45.50
13115;DHT22;6623;52.120;8.660;2023-12-29T11:04:03;20.30;45.60
13115;DHT22;6623;52.120;8.660;2023-12-29T11:06:30;20.30;45.60
13115;DHT22;6623;52.120;8.660;2023-12-29T11:09:04;20.30;45.50
13115;DHT22;6623;52.120;8.660;2023-12-29T11:11:30;20.30;45.50
13115;DHT22;6623;52.120;8.660;2023-12-29T11:13:56;20.30;45.50
13115;DHT22;6623;52.120;8.660;2023-12-29T11:16:23;20.30;45.60
13115;DHT22;6623;52.120;8.660;2023-12-29T11:18:49;20.30;45.60
13115;DHT22;6623;52.120;8.660;2023-12-29T11:21:19;20.30;45.60
13115;DHT22;6623;52.120;8.660;2023-12-29T11:23:47;20.30;45.60
13115;DHT22;6623;52.120;8.660;2023-12-29T11:26:12;20.30;45.60
13115;DHT22;6623;52.120;8.660;2023-12-29T11:28:38;20.30;45.60
13115;DHT22;6623;52.120;8.660;2023-12-29T11:31:04;20.30;45.60
13115;DHT22;6623;52.120;8.660;2023-12-29T11:33:38;20.30;45.60
13115;DHT22;6623;52.120;8.660;2023-12-29T11:36:18;20.30;45.60
13115;DHT22;6623;52.120;8.660;2023-12-29T11:38:59;20.30;45.60
13115;DHT22;6623;52.120;8.660;2023-12-29T11:44:12;20.30;45.60
13115;DHT22;6623;52.120;8.660;2023-12-29T11:46:44;20.30;45.60
13115;DHT22;6623;52.120;8.660;2023-12-29T11:49:10;20.30;45.60
13115;DHT22;6623;52.120;8.660;2023-12-29T11:51:43;20.30;45.60
13115;DHT22;6623;52.120;8.660;2023-12-29T11:54:09;20.30;45.60
13115;DHT22;6623;52.120;8.660;2023-12-29T11:56:39;20.30;45.60
13115;DHT22;6623;52.120;8.660;2023-12-29T11:59:19;20.30;45.60
13115;DHT22;6623;52.120;8.660;2023-12-29T12:01:53;20.30;45.70
13115;DHT22;6623;52.120;8.660;2023-12-29T12:10:18;20.30;45.70
13115;DHT22;6623;52.120;8.660;2023-12-29T12:12:42;20.30;45.70
13115;DHT22;6623;52.120;8.660;2023-12-29T12:17:52;20.30;45.70
13115;DHT22;6623;52.120;8.660;2023-12-29T12:20:17;20.30;45.70
13115;DHT22;6623;52.120;8.660;2023-12-29T12:22:44;20.30;45.70
13115;DHT22;6623;52.120;8.660;2023-12-29T12:25:11;20.30;45.70
13115;DHT22;6623;52.120;8.660;2023-12-29T12:27:38;20.30;45.70
13115;DHT22;6623;52.120;8.660;2023-12-29T12:30:05;20.30;45.70
13115;DHT22;6623;52.120;8.660;2023-12-29T12:32:30;20.20;45.60
13115;DHT22;6623;52.120;8.660;2023-12-29T12:34:56;20.30;45.70
13115;DHT22;6623;52.120;8.660;2023-12-29T12:37:22;20.30;45.70
13115;DHT22;6623;52.120;8.660;2023-12-29T12:39:48;20.30;45.70
13115;DHT22;6623;52.120;8.660;2023-12-29T12:42:15;20.30;45.70
13115;DHT22;6623;52.120;8.660;2023-12-29T12:44:46;20.30;45.70
13115;DHT22;6623;52.120;8.660;2023-12-29T12:47:16;20.30;45.70
13115;DHT22;6623;52.120;8.660;2023-12-29T12:49:43;20.30;45.70
13115;DHT22;6623;52.120;8.660;2023-12-29T12:52:09;20.30;45.70
13115;DHT22;6623;52.120;8.660;2023-12-29T12:54:35;20.30;45.70
13115;DHT22;6623;52.120;8.660;2023-12-29T12:57:00;20.30;45.70
13115;DHT22;6623;52.120;8.660;2023-12-29T12:59:27;20.30;45.70
13115;DHT22;6623;52.120;8.660;2023-12-29T13:01:53;20.30;45.70
13115;DHT22;6623;52.120;8.660;2023-12-29T13:04:19;20.20;45.70
13115;DHT22;6623;52.120;8.660;2023-12-29T13:06:44;20.30;46.40
13115;DHT22;6623;52.120;8.660;2023-12-29T13:09:10;20.20;45.70
13115;DHT22;6623;52.120;8.660;2023-12-29T13:11:38;20.30;45.70
13115;DHT22;6623;52.120;8.660;2023-12-29T13:14:05;20.30;45.70
13115;DHT22;6623;52.120;8.660;2023-12-29T13:16:35;20.20;45.70
13115;DHT22;6623;52.120;8.660;2023-12-29T13:21:55;20.30;45.80
13115;DHT22;6623;52.120;8.660;2023-12-29T13:24:21;20.30;45.70
13115;DHT22;6623;52.120;8.660;2023-12-29T13:26:49;20.20;45.70
13115;DHT22;6623;52.120;8.660;2023-12-29T13:29:19;20.30;45.80
13115;DHT22;6623;52.120;8.660;2023-12-29T13:31:47;20.20;45.70
13115;DHT22;6623;52.120;8.660;2023-12-29T13:35:03;20.30;45.80
13115;DHT22;6623;52.120;8.660;2023-12-29T13:37:30;20.20;45.70
13115;DHT22;6623;52.120;8.660;2023-12-29T13:40:13;20.30;45.80
13115;DHT22;6623;52.120;8.660;2023-12-29T13:42:41;20.30;46.40
13115;DHT22;6623;52.120;8.660;2023-12-29T13:45:09;20.30;45.80
13115;DHT22;6623;52.120;8.660;2023-12-29T13:47:37;20.20;45.70
13115;DHT22;6623;52.120;8.660;2023-12-29T13:50:04;20.20;45.70
13115;DHT22;6623;52.120;8.660;2023-12-29T13:52:30;20.30;45.80
13115;DHT22;6623;52.120;8.660;2023-12-29T13:54:55;20.20;45.70
13115;DHT22;6623;52.120;8.660;2023-12-29T13:57:34;20.30;45.80
13115;DHT22;6623;52.120;8.660;2023-12-29T14:00:17;20.20;45.70
13115;DHT22;6623;52.120;8.660;2023-12-29T14:05:48;20.40;45.90
13115;DHT22;6623;52.120;8.660;2023-12-29T14:08:22;20.20;45.80
13115;DHT22;6623;52.120;8.660;2023-12-29T14:10:48;20.20;45.80
13115;DHT22;6623;52.120;8.660;2023-12-29T14:13:16;20.20;45.80
13115;DHT22;6623;52.120;8.660;2023-12-29T14:15:44;20.20;45.80
13115;DHT22;6623;52.120;8.660;2023-12-29T14:20:57;20.20;45.80
13115;DHT22;6623;52.120;8.660;2023-12-29T14:23:23;20.20;45.80
13115;DHT22;6623;52.120;8.660;2023-12-29T14:25:48;20.20;45.80
13115;DHT22;6623;52.120;8.660;2023-12-29T14:30:40;20.20;45.80
13115;DHT22;6623;52.120;8.660;2023-12-29T14:33:06;20.20;45.80
13115;DHT22;6623;52.120;8.660;2023-12-29T14:35:33;20.20;45.80
13115;DHT22;6623;52.120;8.660;2023-12-29T14:37:58;20.30;45.80
13115;DHT22;6623;52.120;8.660;2023-12-29T14:40:24;20.20;45.80
13115;DHT22;6623;52.120;8.660;2023-12-29T14:42:49;20.30;45.90
13115;DHT22;6623;52.120;8.660;2023-12-29T14:45:15;20.20;45.80
13115;DHT22;6623;52.120;8.660;2023-12-29T14:47:40;20.20;45.80
13115;DHT22;6623;52.120;8.660;2023-12-29T14:50:06;20.20;45.80
13115;DHT22;6623;52.120;8.660;2023-12-29T14:52:32;20.20;45.80
13115;DHT22;6623;52.120;8.660;2023-12-29T14:54:57;20.20;45.80
13115;DHT22;6623;52.120;8.660;2023-12-29T14:57:23;20.20;45.80
13115;DHT22;6623;52.120;8.660;2023-12-29T14:59:49;20.20;45.80
13115;DHT22;6623;52.120;8.660;2023-12-29T15:02:14;20.20;45.80
13115;DHT22;6623;52.120;8.660;2023-12-29T15:04:40;20.20;45.80
13115;DHT22;6623;52.120;8.660;2023-12-29T15:07:05;20.20;45.80
13115;DHT22;6623;52.120;8.660;2023-12-29T15:09:31;20.20;45.80
13115;DHT22;6623;52.120;8.660;2023-12-29T15:11:57;20.20;45.80
13115;DHT22;6623;52.120;8.660;2023-12-29T15:14:22;20.20;45.80
13115;DHT22;6623;52.120;8.660;2023-12-29T15:16:48;20.20;45.80
13115;DHT22;6623;52.120;8.660;2023-12-29T15:19:14;20.20;45.80
13115;DHT22;6623;52.120;8.660;2023-12-29T15:21:40;20.20;45.80
13115;DHT22;6623;52.120;8.660;2023-12-29T15:24:06;20.20;45.80
13115;DHT22;6623;52.120;8.660;2023-12-29T15:26:32;20.20;45.80
13115;DHT22;6623;52.120;8.660;2023-12-29T15:28:57;20.20;45.80
13115;DHT22;6623;52.120;8.660;2023-12-29T15:31:23;20.20;45.80
13115;DHT22;6623;52.120;8.660;2023-12-29T15:33:49;20.20;45.90
13115;DHT22;6623;52.120;8.660;2023-12-29T15:36:15;20.20;45.90
13115;DHT22;6623;52.120;8.660;2023-12-29T15:38:49;20.20;45.80
13115;DHT22;6623;52.120;8.660;2023-12-29T15:41:14;20.20;45.90
13115;DHT22;6623;52.120;8.660;2023-12-29T15:43:40;20.20;45.90
13115;DHT22;6623;52.120;8.660;2023-12-29T15:46:19;20.20;45.90
13115;DHT22;6623;52.120;8.660;2023-12-29T15:48:48;20.20;45.90
13115;DHT22;6623;52.120;8.660;2023-12-29T15:51:14;20.20;45.90
13115;DHT22;6623;52.120;8.660;2023-12-29T15:53:39;20.20;45.90
13115;DHT22;6623;52.120;8.660;2023-12-29T15:56:06;20.20;45.90
13115;DHT22;6623;52.120;8.660;2023-12-29T15:58:32;20.20;45.90
13115;DHT22;6623;52.120;8.660;2023-12-29T16:00:57;20.20;45.90
13115;DHT22;6623;52.120;8.660;2023-12-29T16:03:23;20.20;45.90
13115;DHT22;6623;52.120;8.660;2023-12-29T16:05:48;20.20;45.90
13115;DHT22;6623;52.120;8.660;2023-12-29T16:08:14;20.20;45.90
13115;DHT22;6623;52.120;8.660;2023-12-29T16:10:43;20.20;45.90